Time;durP1;ratioP1;P1;durP2;ratioP2;P2;SDS_P1;SDS_P2;PMS_P1;PMS_P2;Temp;Humidity;BMP_temperature;BMP_pressure;BME280_temperature;BME280_humidity;BME280_pressure;Samples;Min_cycle;Max_cycle;Signal;HPM_P1;HPM_P2
2023/03/31 00:00:46;;;;;;;2.73;1.07;;;;;;;11.85;74.34;98207.97;5076467;28;42392;-85
2023/03/31 00:03:20;;;;;;;2.27;0.67;;;;;;;11.86;75.38;98191.09;5093379;28;38973;-85
2023/03/31 00:05:52;;;;;;;2.10;1.10;;;;;;;11.95;75.42;98204.59;5091361;28;42766;-87
2023/03/31 00:08:21;;;;;;;1.33;0.50;;;;;;;11.99;74.69;98206.06;5076425;28;42804;-85
2023/03/31 00:10:48;;;;;;;4.13;0.80;;;;;;;12.03;74.44;98205.66;5093368;28;42309;-85
2023/03/31 00:13:17;;;;;;;4.30;1.40;;;;;;;12.04;75.50;98186.13;5076271;28;38892;-85
2023/03/31 00:15:44;;;;;;;1.30;0.90;;;;;;;12.04;74.96;98196.75;5093561;28;40967;-83
2023/03/31 00:18:12;;;;;;;2.93;0.97;;;;;;;12.02;74.68;98182.75;5076154;28;42776;-85
2023/03/31 00:20:41;;;;;;;1.20;0.77;;;;;;;12.08;74.96;98189.41;5077492;28;41163;-80
2023/03/31 00:23:09;;;;;;;2.43;1.37;;;;;;;11.95;74.57;98154.19;5100988;28;40190;-84
2023/03/31 00:25:41;;;;;;;3.30;0.93;;;;;;;12.10;74.80;98171.53;5083157;28;40933;-83
2023/03/31 00:28:08;;;;;;;1.97;1.27;;;;;;;12.12;74.63;98156.31;5097825;28;42759;-81
2023/03/31 00:30:36;;;;;;;2.17;0.97;;;;;;;12.13;74.79;98152.69;5101550;28;43191;-84
2023/03/31 00:33:04;;;;;;;3.73;1.10;;;;;;;12.11;75.03;98146.69;5100247;28;40804;-83
2023/03/31 00:35:32;;;;;;;1.77;1.00;;;;;;;12.08;75.73;98138.97;5076012;28;40462;-85
2023/03/31 00:37:59;;;;;;;3.97;1.30;;;;;;;12.01;75.56;98132.44;5093025;28;43748;-86
2023/03/31 00:40:27;;;;;;;4.37;1.07;;;;;;;12.01;76.49;98137.75;5093141;28;42627;-86
2023/03/31 00:42:56;;;;;;;2.67;1.17;;;;;;;11.88;76.02;98117.50;5093167;28;39912;-84
2023/03/31 00:45:27;;;;;;;2.20;1.00;;;;;;;12.00;75.97;98125.44;5075948;28;40554;-86
2023/03/31 00:48:02;;;;;;;1.97;1.43;;;;;;;11.99;76.70;98113.19;5089968;28;42824;-81
2023/03/31 00:50:34;;;;;;;1.50;0.73;;;;;;;12.00;76.65;98109.53;5075878;28;41982;-87
2023/03/31 00:53:07;;;;;;;3.03;0.90;;;;;;;12.03;76.38;98114.59;5090044;28;39876;-84
2023/03/31 00:55:40;;;;;;;2.57;0.97;;;;;;;11.94;75.99;98096.78;5075624;28;41012;-84
2023/03/31 00:58:13;;;;;;;2.03;0.87;;;;;;;12.04;75.53;98111.81;5091372;28;43629;-85
2023/03/31 01:00:41;;;;;;;2.00;0.87;;;;;;;11.98;76.09;98090.25;5092710;28;42688;-82
2023/03/31 01:03:10;;;;;;;3.60;1.03;;;;;;;11.74;75.56;98040.84;5092411;28;40079;-88
2023/03/31 01:05:44;;;;;;;2.70;0.90;;;;;;;12.10;75.47;98091.94;5075673;28;40895;-86
2023/03/31 01:08:13;;;;;;;2.80;0.90;;;;;;;12.14;75.06;98093.34;5089140;28;42731;-83
2023/03/31 01:10:46;;;;;;;2.37;0.70;;;;;;;12.08;74.93;98065.50;5093224;28;43672;-87
2023/03/31 01:13:17;;;;;;;2.20;1.40;;;;;;;12.21;74.96;98084.78;5092266;28;39228;-84
2023/03/31 01:15:44;;;;;;;3.97;1.10;;;;;;;12.11;74.50;98059.13;5075401;28;40645;-85
2023/03/31 01:18:15;;;;;;;4.33;1.10;;;;;;;12.26;74.33;98084.38;5092225;28;42772;-84
2023/03/31 01:21:05;;;;;;;1.80;0.90;;;;;;;12.20;74.47;98063.66;5091543;28;41248;-88
2023/03/31 01:23:52;;;;;;;3.87;1.00;;;;;;;12.31;74.62;98079.56;5091149;28;40978;-89
2023/03/31 01:26:47;;;;;;;2.17;0.80;;;;;;;12.31;74.67;98062.78;5075578;28;40755;-86
2023/03/31 01:29:48;;;;;;;2.07;0.90;;;;;;;12.23;74.70;98037.72;5092677;28;20242;-88
2023/03/31 01:32:53;;;;;;;2.73;0.97;;;;;;;12.28;74.83;98047.94;5091646;28;42214;-86
2023/03/31 01:35:55;;;;;;;2.10;1.03;;;;;;;12.33;74.86;98043.09;5085036;28;39957;-87
2023/03/31 01:38:57;;;;;;;2.27;0.97;;;;;;;12.37;74.78;98039.22;5074886;28;41674;-85
2023/03/31 01:41:56;;;;;;;3.00;0.87;;;;;;;12.36;74.75;98042.88;5088767;28;42683;-85
2023/03/31 01:44:33;;;;;;;3.33;0.90;;;;;;;12.31;74.88;98026.47;5091705;28;42606;-84
2023/03/31 01:47:06;;;;;;;1.57;1.00;;;;;;;12.30;75.10;98027.41;5089285;28;39757;-84
2023/03/31 01:49:43;;;;;;;2.33;1.00;;;;;;;12.20;74.71;98011.41;5090880;28;41742;-83
2023/03/31 01:52:20;;;;;;;1.57;0.80;;;;;;;12.31;74.92;98029.13;5074894;28;42750;-87
2023/03/31 01:54:51;;;;;;;2.37;1.33;;;;;;;12.27;75.07;98016.22;5091529;28;42342;-86
2023/03/31 01:57:26;;;;;;;3.47;0.90;;;;;;;12.31;74.91;98023.81;5075052;28;38783;-84
2023/03/31 02:00:07;;;;;;;3.07;1.10;;;;;;;12.30;75.08;98014.16;5091523;28;40593;-84
2023/03/31 02:02:45;;;;;;;2.57;0.90;;;;;;;12.17;75.00;97994.91;5089652;28;42623;-82
2023/03/31 02:05:18;;;;;;;4.40;1.30;;;;;;;12.25;75.28;98003.06;5088263;28;41974;-88
2023/03/31 02:07:49;;;;;;;3.90;0.90;;;;;;;12.20;75.26;97994.66;5088954;28;40308;-82
2023/03/31 02:10:20;;;;;;;4.90;1.43;;;;;;;12.16;75.84;97983.44;5092975;28;40955;-83
2023/03/31 02:12:51;;;;;;;5.43;1.60;;;;;;;12.19;76.20;97977.03;5091664;28;42332;-82
2023/03/31 02:15:22;;;;;;;3.53;1.40;;;;;;;12.29;75.66;97988.56;5091350;28;41157;-81
2023/03/31 02:17:56;;;;;;;5.90;1.47;;;;;;;12.21;75.33;97970.63;5074798;28;41161;-83
2023/03/31 02:20:27;;;;;;;4.17;1.67;;;;;;;12.19;75.72;97950.50;5090743;28;41782;-83
2023/03/31 02:22:57;;;;;;;4.70;1.23;;;;;;;12.27;75.44;97969.28;5092158;28;42616;-86
2023/03/31 02:25:32;;;;;;;3.33;1.40;;;;;;;12.31;75.82;97965.41;5095354;28;41910;-82
2023/03/31 02:28:06;;;;;;;4.13;1.47;;;;;;;12.32;75.50;97956.47;5092383;28;39992;-86
2023/03/31 02:30:49;;;;;;;1.83;1.03;;;;;;;12.24;75.19;97949.13;5094539;28;41419;-85
2023/03/31 02:33:17;;;;;;;5.77;1.43;;;;;;;12.36;74.93;97957.91;5078122;28;42851;-86
2023/03/31 02:35:44;;;;;;;5.30;1.40;;;;;;;12.27;74.81;97933.91;5094638;28;43134;-83
2023/03/31 02:38:12;;;;;;;2.50;1.40;;;;;;;12.36;75.09;97936.66;5094819;28;39929;-87
2023/03/31 02:40:40;;;;;;;4.47;1.43;;;;;;;12.38;74.72;97942.66;5077585;28;40666;-85
2023/03/31 02:43:10;;;;;;;3.50;1.50;;;;;;;12.33;74.23;97928.94;5077093;28;41672;-85
2023/03/31 02:45:45;;;;;;;3.97;1.20;;;;;;;12.38;74.12;97950.63;5094595;28;44338;-83
2023/03/31 02:48:17;;;;;;;5.47;1.50;;;;;;;12.33;74.12;97918.31;5077425;28;39241;-88
2023/03/31 02:51:01;;;;;;;4.00;1.30;;;;;;;12.37;74.00;97922.38;5094454;28;42068;-85
2023/03/31 02:53:42;;;;;;;3.60;1.47;;;;;;;12.37;73.84;97918.88;5077430;28;41591;-86
2023/03/31 02:56:27;;;;;;;5.70;1.93;;;;;;;12.47;73.65;97927.78;5077396;28;42609;-85
2023/03/31 02:59:09;;;;;;;1.97;1.20;;;;;;;12.53;73.35;97938.72;5092967;28;39804;-85
2023/03/31 03:01:49;;;;;;;4.20;1.30;;;;;;;12.52;73.27;97929.06;5077563;28;40765;-90
2023/03/31 03:04:35;;;;;;;5.70;1.50;;;;;;;12.47;73.29;97898.56;5077007;28;41440;-87
2023/03/31 03:07:09;;;;;;;7.13;1.70;;;;;;;12.51;73.43;97919.41;5077334;28;42467;-85
2023/03/31 03:09:45;;;;;;;7.37;1.43;;;;;;;12.36;74.11;97893.34;5093681;28;40819;-86
2023/03/31 03:12:19;;;;;;;6.53;1.60;;;;;;;12.16;74.80;97871.13;5078196;28;40587;-86
2023/03/31 03:14:54;;;;;;;3.93;1.30;;;;;;;12.30;75.33;97893.84;5077309;28;41741;-84
2023/03/31 03:17:25;;;;;;;4.93;1.80;;;;;;;12.14;75.78;97862.44;5077177;28;40652;-86
2023/03/31 03:19:55;;;;;;;6.03;1.43;;;;;;;12.19;76.16;97878.84;5076744;28;38909;-85
2023/03/31 03:22:23;;;;;;;9.53;2.07;;;;;;;12.05;76.28;97857.91;5076804;28;42078;-84
2023/03/31 03:24:52;;;;;;;5.63;1.37;;;;;;;12.16;75.85;97865.81;5076657;28;42021;-85
2023/03/31 03:27:21;;;;;;;5.37;1.43;;;;;;;12.17;76.41;97856.88;5093878;28;41002;-80
2023/03/31 03:29:51;;;;;;;4.30;1.33;;;;;;;12.07;76.00;97842.72;5093719;28;40038;-84
2023/03/31 03:32:18;;;;;;;3.07;1.40;;;;;;;12.24;75.80;97858.03;5092877;28;41870;-83
2023/03/31 03:34:46;;;;;;;4.17;1.60;;;;;;;12.28;75.48;97862.13;5076338;28;41480;-84
2023/03/31 03:37:14;;;;;;;5.73;1.70;;;;;;;12.04;75.10;97819.09;5093853;28;41991;-83
2023/03/31 03:39:42;;;;;;;5.60;2.03;;;;;;;12.23;75.11;97841.28;5094050;28;40476;-86
2023/03/31 03:42:09;;;;;;;3.90;1.17;;;;;;;12.22;75.48;97828.16;5094001;28;40490;-83
2023/03/31 03:44:37;;;;;;;4.53;1.20;;;;;;;12.20;76.17;97836.22;5093760;28;42797;-81
2023/03/31 03:47:06;;;;;;;8.63;2.07;;;;;;;12.22;77.09;97844.06;5076482;28;41232;-80
2023/03/31 03:49:34;;;;;;;4.47;1.73;;;;;;;12.13;77.75;97827.09;5094559;28;39884;-81
2023/03/31 03:52:02;;;;;;;6.10;1.90;;;;;;;11.95;79.42;97811.91;5093431;28;41705;-84
2023/03/31 03:54:30;;;;;;;6.10;1.43;;;;;;;11.95;80.26;97819.88;5093539;28;41751;-83
2023/03/31 03:56:58;;;;;;;6.07;1.37;;;;;;;11.92;80.90;97820.13;5075544;28;42474;-81
2023/03/31 03:59:26;;;;;;;8.60;2.33;;;;;;;11.89;80.81;97810.59;5076569;28;41013;-85
2023/03/31 04:01:53;;;;;;;3.40;1.57;;;;;;;11.84;80.83;97805.72;5092629;28;40891;-81
2023/03/31 04:04:23;;;;;;;7.77;1.70;;;;;;;11.80;81.03;97792.81;5094198;28;42635;-81
2023/03/31 04:06:51;;;;;;;5.17;1.30;;;;;;;11.66;81.26;97767.44;5092742;28;42302;-82
2023/03/31 04:09:19;;;;;;;4.17;1.77;;;;;;;11.60;81.14;97754.69;5094272;28;40198;-82
2023/03/31 04:11:46;;;;;;;6.93;1.80;;;;;;;11.76;81.98;97778.97;5075756;28;41437;-83
2023/03/31 04:14:14;;;;;;;9.10;2.13;;;;;;;11.74;82.14;97770.28;5075909;28;41511;-81
2023/03/31 04:16:42;;;;;;;3.97;1.60;;;;;;;11.73;82.77;97763.31;5092446;28;42193;-82
2023/03/31 04:19:11;;;;;;;5.17;1.63;;;;;;;11.69;82.87;97767.19;5093975;28;39807;-82
2023/03/31 04:21:44;;;;;;;6.10;1.80;;;;;;;11.64;82.92;97753.44;5075083;28;41534;-84
2023/03/31 04:24:20;;;;;;;4.03;1.50;;;;;;;11.65;82.72;97746.34;5090084;28;42786;-85
2023/03/31 04:26:49;;;;;;;6.40;1.70;;;;;;;11.64;82.57;97752.59;5092545;28;41369;-82
2023/03/31 04:29:19;;;;;;;4.63;1.73;;;;;;;11.63;82.36;97757.06;5075735;28;40010;-83
2023/03/31 04:31:49;;;;;;;6.43;1.83;;;;;;;11.64;82.36;97757.91;5093590;28;42539;-82
2023/03/31 04:34:17;;;;;;;6.20;1.43;;;;;;;11.62;82.92;97750.09;5092344;28;42630;-84
2023/03/31 04:36:47;;;;;;;3.23;1.30;;;;;;;11.64;83.24;97740.19;5093495;28;43176;-80
2023/03/31 04:39:16;;;;;;;5.53;1.53;;;;;;;11.64;82.80;97742.84;5075745;28;38771;-82
2023/03/31 04:41:44;;;;;;;5.70;1.73;;;;;;;11.59;82.63;97726.50;5075379;28;40744;-83
2023/03/31 04:44:12;;;;;;;6.10;1.77;;;;;;;11.64;82.72;97715.47;5092415;28;42664;-82
2023/03/31 04:46:40;;;;;;;6.77;1.60;;;;;;;11.64;82.69;97703.06;5075383;28;41354;-83
2023/03/31 04:49:08;;;;;;;4.43;1.70;;;;;;;11.57;82.10;97686.00;5075736;28;41041;-84
2023/03/31 04:51:35;;;;;;;3.13;1.87;;;;;;;11.72;82.17;97697.97;5092136;28;41797;-84
2023/03/31 04:54:05;;;;;;;2.97;1.57;;;;;;;11.78;81.50;97699.28;5093562;28;43005;-84
2023/03/31 04:56:35;;;;;;;4.27;1.50;;;;;;;11.72;81.12;97674.09;5092272;28;41939;-82
2023/03/31 04:59:14;;;;;;;5.10;2.00;;;;;;;11.75;81.41;97687.09;5092100;28;40098;-81
2023/03/31 05:01:43;;;;;;;3.83;1.40;;;;;;;11.80;80.77;97684.91;5092139;28;40660;-82
2023/03/31 05:04:11;;;;;;;5.17;2.47;;;;;;;11.77;81.07;97669.25;5092370;28;42670;-84
2023/03/31 05:06:39;;;;;;;4.03;1.30;;;;;;;11.81;80.44;97675.16;5075198;28;41036;-84
2023/03/31 05:09:10;;;;;;;3.70;1.50;;;;;;;11.92;80.11;97682.16;5075437;28;38792;-86
2023/03/31 05:11:38;;;;;;;4.27;1.73;;;;;;;11.75;80.32;97655.28;5075330;28;40632;-83
2023/03/31 05:14:05;;;;;;;5.07;1.83;;;;;;;11.85;80.16;97661.50;5092082;28;42755;-81
2023/03/31 05:16:33;;;;;;;3.13;1.40;;;;;;;11.99;79.67;97672.72;5074937;28;41319;-81
2023/03/31 05:19:01;;;;;;;4.33;2.07;;;;;;;12.00;79.81;97669.06;5092982;28;39963;-80
2023/03/31 05:21:29;;;;;;;6.70;1.47;;;;;;;11.87;79.50;97645.41;5092520;28;41325;-80
2023/03/31 05:23:57;;;;;;;5.00;1.13;;;;;;;11.99;79.58;97662.91;5091364;28;42641;-80
2023/03/31 05:26:26;;;;;;;5.03;1.27;;;;;;;12.02;79.02;97651.19;5091958;28;42319;-80
2023/03/31 05:28:54;;;;;;;3.93;1.40;;;;;;;12.04;79.13;97659.88;5091623;28;38852;-80
2023/03/31 05:31:23;;;;;;;3.27;1.30;;;;;;;12.05;79.00;97645.63;5091393;28;41564;-80
2023/03/31 05:33:50;;;;;;;5.13;1.53;;;;;;;12.06;78.50;97649.97;5091822;28;43719;-79
2023/03/31 05:36:18;;;;;;;6.83;1.70;;;;;;;12.08;78.50;97648.03;5092143;28;42349;-79
2023/03/31 05:38:46;;;;;;;5.73;1.50;;;;;;;12.07;78.65;97641.03;5074772;28;41229;-80
2023/03/31 05:41:15;;;;;;;6.33;1.73;;;;;;;12.11;78.47;97634.50;5091220;28;41905;-80
2023/03/31 05:43:45;;;;;;;3.57;1.67;;;;;;;12.10;78.31;97630.16;5091733;28;43776;-80
2023/03/31 05:46:12;;;;;;;3.30;1.60;;;;;;;12.08;78.05;97629.47;5091145;28;42242;-80
2023/03/31 05:48:40;;;;;;;5.93;1.90;;;;;;;12.10;78.20;97633.66;5092657;28;40877;-80
2023/03/31 05:51:08;;;;;;;2.73;1.37;;;;;;;12.13;77.97;97637.84;5090933;28;41597;-80
2023/03/31 05:53:36;;;;;;;5.37;1.80;;;;;;;12.00;78.29;97634.56;5092569;28;42713;-80
2023/03/31 05:56:06;;;;;;;3.13;1.30;;;;;;;12.02;79.03;97637.94;5077547;28;42160;-79
2023/03/31 05:58:35;;;;;;;5.30;1.70;;;;;;;11.87;79.04;97633.00;5093046;28;40945;-80
2023/03/31 06:01:06;;;;;;;5.13;1.90;;;;;;;11.89;79.80;97643.47;5077473;28;40600;-79
2023/03/31 06:03:34;;;;;;;4.83;1.33;;;;;;;11.85;80.54;97628.81;5094701;28;41895;-79
2023/03/31 06:06:04;;;;;;;4.50;1.60;;;;;;;11.85;80.41;97637.63;5095547;28;43255;-80
2023/03/31 06:08:32;;;;;;;3.50;1.50;;;;;;;11.79;81.07;97637.31;5094808;28;39616;-80
2023/03/31 06:10:59;;;;;;;4.47;1.77;;;;;;;11.71;81.71;97632.63;5077201;28;40938;-80
2023/03/31 06:13:27;;;;;;;4.47;1.70;;;;;;;11.64;82.51;97623.50;5094803;28;42534;-81
2023/03/31 06:15:56;;;;;;;5.10;2.03;;;;;;;11.59;83.30;97616.94;5094728;28;43256;-80
2023/03/31 06:18:27;;;;;;;5.27;1.70;;;;;;;11.53;83.20;97607.69;5077701;28;38910;-81
2023/03/31 06:20:55;;;;;;;4.93;1.60;;;;;;;11.63;83.09;97632.44;5077893;28;40521;-80
2023/03/31 06:23:23;;;;;;;4.13;1.90;;;;;;;11.64;83.25;97636.78;5095763;28;42533;-80
2023/03/31 06:25:52;;;;;;;5.83;2.20;;;;;;;11.58;83.71;97636.47;5095038;28;43226;-79
2023/03/31 06:28:21;;;;;;;3.13;1.50;;;;;;;11.59;83.79;97625.75;5094419;28;41281;-80
2023/03/31 06:30:49;;;;;;;6.83;1.80;;;;;;;11.58;84.54;97616.09;5094074;28;40619;-81
2023/03/31 06:33:16;;;;;;;7.80;1.73;;;;;;;11.54;84.86;97619.97;5095601;28;42979;-83
2023/03/31 06:35:46;;;;;;;4.63;1.97;;;;;;;11.55;84.72;97619.00;5095310;28;42228;-82
2023/03/31 06:38:13;;;;;;;5.00;1.83;;;;;;;11.58;84.16;97632.00;5095499;28;39896;-83
2023/03/31 06:40:42;;;;;;;6.27;2.43;;;;;;;11.46;84.93;97596.78;5094106;28;41371;-81
2023/03/31 06:43:10;;;;;;;4.37;1.90;;;;;;;11.61;85.81;97615.84;5077109;28;41932;-80
2023/03/31 06:45:38;;;;;;;4.37;1.70;;;;;;;11.49;84.99;97579.78;5094215;28;41521;-81
2023/03/31 06:48:06;;;;;;;3.33;2.10;;;;;;;11.59;85.50;97599.22;5094143;28;40140;-81
2023/03/31 06:50:34;;;;;;;8.17;3.37;;;;;;;11.58;86.06;97589.59;5076718;28;40527;-84
2023/03/31 06:53:03;;;;;;;5.73;2.40;;;;;;;11.58;85.93;97579.00;5095319;28;43021;-81
2023/03/31 06:55:32;;;;;;;4.53;2.33;;;;;;;11.58;85.93;97567.53;5076886;28;41227;-81
2023/03/31 06:58:00;;;;;;;5.20;2.60;;;;;;;11.51;86.64;97567.22;5077443;28;40033;-82
2023/03/31 07:00:27;;;;;;;7.40;2.27;;;;;;;11.49;86.84;97561.22;5093813;28;40881;-82
2023/03/31 07:02:55;;;;;;;5.17;2.27;;;;;;;11.50;87.13;97547.81;5093752;28;41751;-79
2023/03/31 07:05:26;;;;;;;5.43;2.30;;;;;;;11.50;87.46;97544.31;5092651;28;42322;-81
2023/03/31 07:07:54;;;;;;;5.17;2.10;;;;;;;11.50;87.64;97528.41;5090333;28;39810;-81
2023/03/31 07:10:24;;;;;;;7.73;2.30;;;;;;;11.46;87.70;97513.78;5093517;28;41537;-83
2023/03/31 07:12:52;;;;;;;7.07;2.67;;;;;;;11.51;88.11;97508.91;5076780;28;42102;-84
2023/03/31 07:15:20;;;;;;;5.53;1.87;;;;;;;11.52;87.94;97506.13;5093258;28;42716;-82
2023/03/31 07:17:49;;;;;;;6.20;2.07;;;;;;;11.49;88.58;97502.91;5076310;28;40028;-82
2023/03/31 07:20:19;;;;;;;5.20;2.30;;;;;;;11.35;88.57;97476.78;5095995;28;42690;-80
2023/03/31 07:22:48;;;;;;;7.83;2.60;;;;;;;11.46;88.81;97497.88;5096556;28;42763;-79
2023/03/31 07:25:17;;;;;;;4.77;2.60;;;;;;;11.41;88.90;97485.00;5096248;28;41407;-84
2023/03/31 07:27:47;;;;;;;7.20;3.43;;;;;;;11.45;88.77;97488.25;5079057;28;39142;-81
2023/03/31 07:30:17;;;;;;;4.93;2.83;;;;;;;11.38;90.01;97487.91;5079330;28;40649;-82
2023/03/31 07:32:46;;;;;;;7.63;2.80;;;;;;;11.40;89.51;97483.34;5095393;28;41638;-81
2023/03/31 07:35:14;;;;;;;5.60;2.63;;;;;;;11.42;90.09;97477.91;5077284;28;42189;-82
2023/03/31 07:37:44;;;;;;;7.87;3.23;;;;;;;11.45;89.87;97477.63;5093842;28;38792;-82
2023/03/31 07:40:15;;;;;;;4.87;2.30;;;;;;;11.43;89.96;97458.38;5094320;28;41894;-82
2023/03/31 07:42:45;;;;;;;4.67;2.37;;;;;;;11.29;90.66;97424.28;5091851;28;42903;-84
2023/03/31 07:45:15;;;;;;;5.60;2.80;;;;;;;11.47;90.48;97459.78;5076262;28;41225;-84
2023/03/31 07:47:45;;;;;;;5.83;3.00;;;;;;;11.36;90.43;97446.66;5093933;28;40279;-86
2023/03/31 07:50:13;;;;;;;6.03;2.80;;;;;;;11.44;90.43;97454.75;5094582;28;41694;-84
2023/03/31 07:52:41;;;;;;;3.97;2.63;;;;;;;11.53;90.47;97470.69;5076578;28;41790;-83
2023/03/31 07:55:10;;;;;;;4.93;2.83;;;;;;;11.51;90.81;97456.72;5093207;28;41170;-81
2023/03/31 07:57:39;;;;;;;4.30;2.70;;;;;;;11.56;90.72;97448.38;5076858;28;39697;-85
2023/03/31 08:00:11;;;;;;;7.60;2.53;;;;;;;11.59;90.66;97437.50;5094158;28;41722;-84
2023/03/31 08:02:43;;;;;;;10.17;3.57;;;;;;;11.67;90.83;97429.69;5077465;28;41966;-82
2023/03/31 08:05:12;;;;;;;7.80;3.20;;;;;;;11.75;90.79;97407.75;5076483;28;41066;-86
2023/03/31 08:07:43;;;;;;;6.33;3.13;;;;;;;11.81;91.13;97416.06;5093426;28;40194;-83
2023/03/31 08:10:13;;;;;;;6.90;3.20;;;;;;;11.86;90.90;97407.69;5093648;28;40357;-83
2023/03/31 08:12:40;;;;;;;8.73;3.87;;;;;;;11.91;91.18;97391.34;5093219;28;42960;-82
2023/03/31 08:15:09;;;;;;;4.93;3.10;;;;;;;11.71;90.37;97342.75;5094352;28;42127;-84
2023/03/31 08:17:37;;;;;;;4.97;3.07;;;;;;;12.14;90.03;97396.22;5092986;28;38993;-83
2023/03/31 08:20:09;;;;;;;8.37;3.70;;;;;;;12.26;89.78;97373.00;5076359;28;41534;-83
2023/03/31 08:22:37;;;;;;;6.03;3.37;;;;;;;12.54;89.03;97382.72;5090269;28;42557;-86
2023/03/31 08:25:07;;;;;;;6.33;3.53;;;;;;;12.77;87.79;97406.28;5092416;28;41369;-87
2023/03/31 08:27:35;;;;;;;7.93;4.10;;;;;;;12.62;87.13;97386.47;5093157;28;40794;-84
2023/03/31 08:30:03;;;;;;;5.73;2.73;;;;;;;12.52;87.23;97386.50;5092896;28;41880;-84
2023/03/31 08:32:32;;;;;;;5.40;3.70;;;;;;;12.55;87.48;97400.34;5094191;28;41795;-82
2023/03/31 08:35:01;;;;;;;5.40;3.40;;;;;;;12.50;87.79;97389.28;5095868;28;42478;-82
2023/03/31 08:37:30;;;;;;;7.20;3.43;;;;;;;12.51;87.58;97377.69;5096671;28;39879;-81
2023/03/31 08:39:58;;;;;;;5.80;3.57;;;;;;;12.54;88.14;97382.72;5096256;28;42759;-83
2023/03/31 08:42:36;;;;;;;6.00;3.33;;;;;;;12.62;88.74;97373.19;5095473;28;44622;-81
2023/03/31 08:45:08;;;;;;;6.90;3.97;;;;;;;12.56;87.63;97369.31;5078024;28;42612;-82
2023/03/31 08:47:38;;;;;;;6.37;3.60;;;;;;;12.64;87.72;97357.97;5092736;28;39930;-82
2023/03/31 08:50:11;;;;;;;6.67;3.40;;;;;;;12.86;87.30;97381.50;5075397;28;42072;-82
2023/03/31 08:52:44;;;;;;;5.27;3.67;;;;;;;12.94;87.01;97390.44;5076137;28;43004;-82
2023/03/31 08:55:17;;;;;;;7.40;3.20;;;;;;;13.05;86.16;97388.56;5091769;28;41444;-82
2023/03/31 08:57:54;;;;;;;5.47;3.40;;;;;;;13.09;86.55;97388.13;5089942;28;40804;-80
2023/03/31 09:00:22;;;;;;;5.53;3.23;;;;;;;13.22;86.03;97382.50;5092694;28;40360;-80
2023/03/31 09:02:59;;;;;;;4.47;3.13;;;;;;;13.37;85.11;97374.84;5092339;28;43032;-81
2023/03/31 09:05:45;;;;;;;7.43;3.63;;;;;;;13.63;84.46;97386.44;5091937;28;41409;-81
2023/03/31 09:08:22;;;;;;;6.07;3.47;;;;;;;14.53;82.63;97402.22;5075600;28;39840;-81
2023/03/31 09:10:55;;;;;;;7.13;3.67;;;;;;;14.53;81.04;97442.16;5092581;28;40641;-83
2023/03/31 09:13:43;;;;;;;7.33;3.47;;;;;;;14.12;81.64;97435.63;5075139;28;43214;-79
2023/03/31 09:16:14;;;;;;;3.60;2.30;;;;;;;13.60;80.42;97392.03;5091827;28;43270;-81
2023/03/31 09:18:45;;;;;;;2.80;1.60;;;;;;;13.06;78.25;97399.03;5092176;28;40074;-82
2023/03/31 09:21:19;;;;;;;4.70;1.83;;;;;;;12.53;78.56;97391.69;5091269;28;40925;-82
2023/03/31 09:23:55;;;;;;;4.73;1.33;;;;;;;12.31;80.05;97407.94;5075208;28;41923;-80
2023/03/31 09:26:27;;;;;;;1.47;1.37;;;;;;;12.03;80.72;97414.09;5092015;28;41328;-84
2023/03/31 09:28:58;;;;;;;2.83;1.27;;;;;;;11.84;82.27;97394.56;5088697;28;39979;-80
2023/03/31 09:31:26;;;;;;;2.50;1.00;;;;;;;12.02;83.55;97423.03;5075191;28;40648;-80
2023/03/31 09:34:00;;;;;;;1.80;0.90;;;;;;;11.78;83.16;97434.03;5092791;28;42782;-81
2023/03/31 09:36:28;;;;;;;3.10;1.20;;;;;;;11.58;83.04;97434.97;5090943;28;43218;-79
2023/03/31 09:38:57;;;;;;;1.40;1.23;;;;;;;11.37;82.63;97413.88;5092864;28;40018;-85
2023/03/31 09:41:25;;;;;;;1.93;1.00;;;;;;;11.41;83.13;97434.66;5074726;28;40861;-83
2023/03/31 09:43:52;;;;;;;5.23;1.63;;;;;;;11.35;83.91;97429.06;5074437;28;41843;-81
2023/03/31 09:46:26;;;;;;;4.77;1.20;;;;;;;11.23;84.36;97403.66;5091173;28;42573;-85
2023/03/31 09:48:59;;;;;;;2.23;0.73;;;;;;;11.26;84.80;97409.50;5091911;28;40183;-83
2023/03/31 09:51:32;;;;;;;4.23;1.10;;;;;;;11.36;85.00;97398.94;5090771;28;41785;-84
2023/03/31 09:54:10;;;;;;;4.57;1.10;;;;;;;11.39;85.78;97378.28;5088299;28;44184;-83
2023/03/31 09:56:52;;;;;;;2.27;1.07;;;;;;;11.49;85.48;97391.56;5091112;28;42208;-86
2023/03/31 09:59:21;;;;;;;2.83;1.00;;;;;;;11.53;85.52;97380.53;5074627;28;40207;-86
2023/03/31 10:01:52;;;;;;;1.10;0.87;;;;;;;11.52;85.65;97378.84;5090763;28;40748;-81
2023/03/31 10:04:24;;;;;;;2.73;1.13;;;;;;;11.46;85.41;97357.38;5073709;28;41954;-81
2023/03/31 10:06:53;;;;;;;3.73;1.83;;;;;;;11.79;85.98;97396.78;5073836;28;41143;-85
2023/03/31 10:09:26;;;;;;;2.90;1.27;;;;;;;11.86;86.23;97392.63;5092399;28;39905;-86
2023/03/31 10:11:56;;;;;;;1.57;1.20;;;;;;;11.80;85.95;97403.78;5074164;28;41798;-85
2023/03/31 10:14:27;;;;;;;2.60;1.20;;;;;;;11.63;85.83;97396.44;5088192;28;42950;-84
2023/03/31 10:16:57;;;;;;;3.27;1.57;;;;;;;11.58;85.76;97401.34;5091048;28;42086;-81
2023/03/31 10:19:27;;;;;;;5.23;1.70;;;;;;;11.55;86.17;97414.88;5091359;28;39753;-84
2023/03/31 10:21:59;;;;;;;2.47;1.50;;;;;;;11.45;85.93;97379.56;5090859;28;41766;-85
2023/03/31 10:24:37;;;;;;;2.97;1.33;;;;;;;11.70;87.10;97378.19;5091064;28;41922;-84
2023/03/31 10:27:07;;;;;;;3.80;1.47;;;;;;;11.80;86.03;97371.09;5093558;28;43703;-82
2023/03/31 10:29:36;;;;;;;1.50;1.10;;;;;;;11.86;86.07;97386.47;5091743;28;38941;-82
2023/03/31 10:32:05;;;;;;;3.43;1.43;;;;;;;11.78;86.30;97404.88;5073732;28;40620;-83
2023/03/31 10:34:34;;;;;;;1.53;1.37;;;;;;;11.61;86.86;97416.16;5073654;28;41741;-82
2023/03/31 10:37:05;;;;;;;3.33;1.50;;;;;;;11.53;87.84;97428.25;5073223;28;41390;-86
2023/03/31 10:39:34;;;;;;;4.33;1.77;;;;;;;11.43;88.22;97437.16;5090730;28;41113;-79
2023/03/31 10:42:02;;;;;;;2.80;1.30;;;;;;;11.12;88.11;97426.63;5094273;28;41490;-84
2023/03/31 10:44:34;;;;;;;2.07;1.17;;;;;;;11.07;87.67;97439.44;5095607;28;43596;-87
2023/03/31 10:47:17;;;;;;;2.17;1.00;;;;;;;10.94;87.29;97425.56;5094194;28;40755;-83
2023/03/31 10:49:47;;;;;;;1.03;0.93;;;;;;;10.96;87.03;97391.84;5077287;28;40146;-81
2023/03/31 10:52:18;;;;;;;1.03;0.50;;;;;;;10.78;83.48;97396.09;5091013;28;41792;-81
2023/03/31 10:55:01;;;;;;;0.40;0.40;;;;;;;10.75;84.84;97372.53;5090715;28;43005;-86
2023/03/31 10:57:43;;;;;;;0.77;0.40;;;;;;;10.63;84.98;97437.94;5077585;28;42272;-84
2023/03/31 11:00:24;;;;;;;2.13;0.63;;;;;;;10.36;86.20;97443.78;5077119;28;38918;-84
2023/03/31 11:03:13;;;;;;;2.27;0.70;;;;;;;10.26;87.81;97445.50;5091748;28;43099;-85
2023/03/31 11:05:47;;;;;;;2.07;0.37;;;;;;;10.22;87.21;97428.22;5093722;28;42218;-81
2023/03/31 11:08:41;;;;;;;0.40;0.40;;;;;;;10.24;87.63;97421.00;5092148;28;42237;-86
2023/03/31 11:11:25;;;;;;;0.53;0.50;;;;;;;10.22;87.34;97412.38;5094009;28;39002;-85
2023/03/31 11:14:01;;;;;;;0.30;0.30;;;;;;;10.15;87.41;97352.94;5093549;28;40963;-82
2023/03/31 11:16:39;;;;;;;0.50;0.30;;;;;;;10.23;85.30;97336.47;5094087;28;42688;-82
2023/03/31 11:19:29;;;;;;;0.97;0.40;;;;;;;10.33;85.27;97317.03;5093507;28;41100;-83
2023/03/31 11:22:06;;;;;;;0.67;0.40;;;;;;;10.57;84.83;97331.78;5093410;28;39852;-82
2023/03/31 11:24:47;;;;;;;0.60;0.30;;;;;;;10.84;84.67;97324.06;5093405;28;41063;-82
2023/03/31 11:27:30;;;;;;;0.50;0.40;;;;;;;11.20;84.27;97316.47;5076256;28;41753;-82
2023/03/31 11:30:04;;;;;;;0.60;0.50;;;;;;;11.46;82.84;97320.28;5090274;28;42772;-82
2023/03/31 11:32:46;;;;;;;2.20;0.70;;;;;;;11.71;82.47;97322.38;5076987;28;40623;-83
2023/03/31 11:35:32;;;;;;;1.63;0.70;;;;;;;11.94;81.28;97330.06;5092997;28;41694;-82
2023/03/31 11:38:23;;;;;;;1.10;0.80;;;;;;;12.82;81.52;97327.00;5093363;28;42746;-83
2023/03/31 11:41:01;;;;;;;3.43;0.97;;;;;;;14.97;79.48;97303.50;5073444;28;41331;-85
2023/03/31 11:43:35;;;;;;;1.47;0.80;;;;;;;16.83;73.39;97319.59;5090584;28;40893;-82
2023/03/31 11:46:08;;;;;;;3.10;0.90;;;;;;;18.74;66.39;97325.00;5093000;28;41765;-84
2023/03/31 11:48:42;;;;;;;2.30;0.83;;;;;;;19.26;60.76;97362.44;5076320;28;43953;-84
2023/03/31 11:51:16;;;;;;;1.77;0.80;;;;;;;19.40;59.72;97352.72;5075865;28;42301;-89
2023/03/31 11:53:47;;;;;;;2.03;0.93;;;;;;;19.25;57.34;97355.41;5076171;28;38788;-83
2023/03/31 11:56:17;;;;;;;3.70;1.03;;;;;;;19.58;56.34;97350.47;5094146;28;41771;-85